Fredricktwn, Ohio
Current Conditions -  °F | °C
As of 11:56 PM on Sunday 21 Dec 2014 (Local Time) from K4I3 Reporting Station
Clear Clear  
Wind Chill: 18°   Ceiling: Unl
Heat Index: 25°   Visibility: 7mi
Dew Point: 21°   Wind: 6mph
Humidity: 86%   Direction: 50°NE
Pressure: 30.14"   Gusts: NA
Location:  40.4945°N, 82.5786°W
Report Text: K4I3 220456Z AUTO 05005KT 7SM CLR M04/M06 A3014 RMK AO2
Loading
Personal Weather Stations






























Interactive Weather Map New forecast layout! Learn more

10-Day Weather Forecast

Advertisements
Track Severe Weather on mobile